Time;durP1;ratioP1;P1;durP2;ratioP2;P2;SDS_P1;SDS_P2;PMS_P1;PMS_P2;Temp;Humidity;BMP_temperature;BMP_pressure;BME280_temperature;BME280_humidity;BME280_pressure;Samples;Min_cycle;Max_cycle;Signal;HPM_P1;HPM_P2
2023/05/24 00:01:15;;;;;;;4.68;2.72;;;;;;;18.53;55.32;98487.22;4946210;29;20119;-80
2023/05/24 00:03:41;;;;;;;6.25;2.90;;;;;;;18.54;55.30;98498.59;4930181;29;20488;-79
2023/05/24 00:06:06;;;;;;;4.85;2.70;;;;;;;18.50;55.27;98495.50;4914538;29;20424;-79
2023/05/24 00:08:32;;;;;;;6.35;3.00;;;;;;;18.51;55.21;98498.94;4914304;29;20095;-79
2023/05/24 00:10:58;;;;;;;8.38;3.17;;;;;;;18.51;55.12;98496.31;4946447;28;20044;-79
2023/05/24 00:13:24;;;;;;;3.80;2.80;;;;;;;18.53;55.31;98497.78;4930331;29;20111;-79
2023/05/24 00:15:49;;;;;;;8.00;3.22;;;;;;;18.53;55.33;98492.50;4946275;29;20110;-79
2023/05/24 00:18:16;;;;;;;4.22;2.85;;;;;;;18.52;55.29;98495.31;4930150;29;20043;-80
2023/05/24 00:20:42;;;;;;;6.45;3.30;;;;;;;18.47;55.20;98485.28;4945593;29;20064;-79
2023/05/24 00:23:08;;;;;;;5.70;3.10;;;;;;;18.49;55.36;98491.19;4946156;29;20084;-79
2023/05/24 00:25:34;;;;;;;4.90;2.90;;;;;;;18.44;55.42;98482.97;4914137;29;20460;-78
2023/05/24 00:27:59;;;;;;;4.38;2.90;;;;;;;18.37;55.13;98480.19;4930349;29;20028;-79
2023/05/24 00:30:25;;;;;;;4.32;3.20;;;;;;;18.37;55.36;98476.72;4914363;29;20044;-79
2023/05/24 00:32:50;;;;;;;16.08;3.05;;;;;;;18.36;55.46;98485.63;4932758;29;20063;-79
2023/05/24 00:35:16;;;;;;;9.75;3.38;;;;;;;18.35;55.65;98487.47;4933745;29;20059;-79
2023/05/24 00:37:43;;;;;;;5.43;3.22;;;;;;;18.31;55.39;98482.69;4933359;29;20166;-79
2023/05/24 00:40:10;;;;;;;4.75;3.10;;;;;;;18.32;55.51;98493.09;4933627;29;20131;-79
2023/05/24 00:42:35;;;;;;;5.90;3.30;;;;;;;18.30;55.65;98491.63;4949385;29;20032;-79
2023/05/24 00:45:01;;;;;;;5.22;2.95;;;;;;;18.29;55.47;98493.44;4949531;29;20039;-79
2023/05/24 00:47:26;;;;;;;10.50;3.33;;;;;;;18.27;55.63;98483.03;4918732;29;20515;-79
2023/05/24 00:49:52;;;;;;;4.78;3.25;;;;;;;18.24;55.52;98488.66;4917479;29;20072;-79
2023/05/24 00:52:17;;;;;;;4.93;3.08;;;;;;;18.22;55.53;98490.66;4932942;29;20397;-79
2023/05/24 00:54:43;;;;;;;4.47;3.05;;;;;;;18.21;55.48;98482.91;4917318;29;20044;-79
2023/05/24 00:57:08;;;;;;;9.00;4.10;;;;;;;18.19;55.41;98490.19;4933117;29;20036;-79
2023/05/24 00:59:34;;;;;;;6.55;3.50;;;;;;;18.14;55.47;98481.94;4933195;29;20046;-79
2023/05/24 01:01:59;;;;;;;8.43;3.00;;;;;;;18.14;55.27;98479.31;4917220;29;20040;-80
2023/05/24 01:04:26;;;;;;;12.40;3.50;;;;;;;18.12;55.28;98484.75;4932462;29;20044;-79
2023/05/24 01:06:58;;;;;;;4.60;3.55;;;;;;;18.11;55.33;98488.41;4917012;29;20048;-79
2023/05/24 01:09:48;;;;;;;5.57;3.15;;;;;;;18.07;55.44;98484.44;4918172;29;20072;-79
2023/05/24 01:12:34;;;;;;;6.63;3.25;;;;;;;18.02;55.26;98482.31;4932688;29;20127;-79
2023/05/24 01:15:09;;;;;;;6.43;2.95;;;;;;;17.96;55.28;98469.78;4947700;29;20036;-73
2023/05/24 01:18:00;;;;;;;6.20;3.03;;;;;;;17.97;55.33;98474.09;4932034;29;20033;-79
2023/05/24 01:20:25;;;;;;;8.10;3.17;;;;;;;17.96;55.25;98480.34;4951546;28;20063;-78
2023/05/24 01:23:07;;;;;;;6.50;3.13;;;;;;;17.96;55.45;98480.34;4920022;29;20036;-79
2023/05/24 01:25:51;;;;;;;5.40;3.03;;;;;;;17.93;55.36;98478.06;4951805;29;20043;-79
2023/05/24 01:28:17;;;;;;;6.70;2.88;;;;;;;17.92;55.40;98484.34;4937076;29;20103;-78
2023/05/24 01:30:42;;;;;;;13.35;2.85;;;;;;;17.87;55.38;98487.47;4935733;29;20052;-78
2023/05/24 01:33:07;;;;;;;5.70;3.33;;;;;;;17.88;55.18;98481.25;4935904;29;20044;-79
2023/05/24 01:35:38;;;;;;;6.35;3.45;;;;;;;17.87;55.36;98484.84;4935522;29;20040;-78
2023/05/24 01:38:07;;;;;;;6.30;3.50;;;;;;;17.84;55.25;98484.34;4934922;29;20122;-78
2023/05/24 01:40:32;;;;;;;;;;;;;;;17.83;55.21;98482.69;4935599;29;20142;-78
2023/05/24 01:43:07;;;;;;;11.45;3.15;;;;;;;17.78;55.44;98480.56;4918775;29;20005;-78
2023/05/24 01:45:38;;;;;;;6.30;2.97;;;;;;;17.73;55.51;98474.97;4919850;29;20123;-78
2023/05/24 01:48:07;;;;;;;3.78;2.70;;;;;;;17.75;55.39;98488.81;4936160;29;20109;-79
2023/05/24 01:50:44;;;;;;;5.55;3.15;;;;;;;17.74;55.46;98487.16;4935503;29;20102;-79
2023/05/24 01:53:12;;;;;;;8.10;3.47;;;;;;;17.71;55.38;98482.22;4919965;29;20043;-79
2023/05/24 01:55:38;;;;;;;8.18;3.00;;;;;;;17.70;55.45;98488.50;4919234;29;20042;-78
2023/05/24 01:58:04;;;;;;;9.98;3.33;;;;;;;17.66;55.50;98487.19;4918950;29;20044;-79
2023/05/24 02:00:30;;;;;;;4.50;3.10;;;;;;;17.66;55.61;98482.75;4934742;29;20555;-79
2023/05/24 02:02:56;;;;;;;8.57;3.30;;;;;;;17.65;55.60;98475.81;4919277;29;20040;-79
2023/05/24 02:05:21;;;;;;;6.75;3.00;;;;;;;17.66;55.64;98479.28;4951325;29;20134;-79
2023/05/24 02:07:47;;;;;;;5.47;3.05;;;;;;;17.67;55.65;98487.03;4951023;29;20039;-79
2023/05/24 02:10:12;;;;;;;4.03;2.90;;;;;;;17.66;55.54;98489.81;4919335;29;20427;-79
2023/05/24 02:12:38;;;;;;;4.63;3.13;;;;;;;17.65;55.66;98485.56;4935076;29;20047;-78
2023/05/24 02:15:03;;;;;;;4.70;3.20;;;;;;;17.63;55.37;98476.97;4934651;29;20389;-79
2023/05/24 02:17:31;;;;;;;4.88;3.00;;;;;;;17.64;55.62;98479.44;4934919;29;20036;-78
2023/05/24 02:20:00;;;;;;;6.15;3.20;;;;;;;17.64;55.47;98489.19;4936419;29;20606;-79
2023/05/24 02:22:26;;;;;;;5.43;3.10;;;;;;;17.58;55.46;98480.09;4935146;29;20051;-79
2023/05/24 02:24:52;;;;;;;5.85;3.10;;;;;;;17.58;55.69;98493.31;4934623;29;20407;-79
2023/05/24 02:27:17;;;;;;;9.30;3.00;;;;;;;17.53;55.74;98498.28;4934873;29;20483;-79
2023/05/24 02:29:43;;;;;;;5.90;3.10;;;;;;;17.55;55.55;98504.19;4934565;29;20135;-79
2023/05/24 02:32:08;;;;;;;6.88;3.10;;;;;;;17.52;55.63;98500.09;4935782;29;20071;-78
2023/05/24 02:34:34;;;;;;;8.93;3.10;;;;;;;17.51;55.59;98502.91;4918992;29;20036;-79
2023/05/24 02:37:00;;;;;;;5.03;3.00;;;;;;;17.50;55.90;98498.59;4919109;29;20047;-79
2023/05/24 02:39:26;;;;;;;5.88;2.95;;;;;;;17.50;55.67;98501.25;4933810;29;20080;-78
2023/05/24 02:41:52;;;;;;;7.15;3.20;;;;;;;17.45;55.72;98491.19;4935762;29;20107;-79
2023/05/24 02:44:17;;;;;;;4.32;2.80;;;;;;;17.45;55.60;98499.09;4934373;29;20032;-79
2023/05/24 02:46:43;;;;;;;6.15;3.20;;;;;;;17.48;55.69;98505.88;4934456;29;20106;-79
2023/05/24 02:49:09;;;;;;;3.70;2.88;;;;;;;17.45;55.57;98504.38;4934043;29;20036;-79
2023/05/24 02:51:35;;;;;;;5.97;3.00;;;;;;;17.45;55.61;98504.38;4933779;29;20142;-78
2023/05/24 02:54:02;;;;;;;3.92;2.63;;;;;;;17.44;55.73;98502.75;4935264;29;20064;-79
2023/05/24 02:56:28;;;;;;;5.32;3.20;;;;;;;17.45;55.73;98503.56;4934438;29;20040;-79
2023/05/24 02:58:54;;;;;;;4.72;2.80;;;;;;;17.47;55.71;98512.97;4918328;29;20621;-79
2023/05/24 03:01:20;;;;;;;4.53;2.97;;;;;;;17.58;55.57;98514.41;4918503;29;20043;-79
2023/05/24 03:03:46;;;;;;;5.28;3.15;;;;;;;17.78;55.08;98514.88;4934081;29;20102;-78
2023/05/24 03:06:12;;;;;;;5.90;3.15;;;;;;;17.75;55.05;98514.41;4935396;29;20111;-78
2023/05/24 03:08:38;;;;;;;8.35;3.30;;;;;;;17.81;55.03;98519.84;4918612;29;20059;-78
2023/05/24 03:11:04;;;;;;;6.15;3.40;;;;;;;17.96;54.54;98509.41;4918024;29;20058;-79
2023/05/24 03:13:29;;;;;;;4.72;3.05;;;;;;;18.22;54.06;98514.44;4949177;28;20035;-79
2023/05/24 03:15:55;;;;;;;4.90;2.85;;;;;;;18.41;53.74;98512.38;4918307;29;20063;-78
2023/05/24 03:18:21;;;;;;;8.93;2.80;;;;;;;18.36;53.59;98509.41;4949740;29;20043;-78
2023/05/24 03:20:46;;;;;;;4.35;3.25;;;;;;;18.31;53.96;98512.59;4934863;29;20091;-79
2023/05/24 03:23:12;;;;;;;6.07;2.80;;;;;;;18.72;52.84;98530.06;4933519;29;20044;-79
2023/05/24 03:25:37;;;;;;;4.15;2.75;;;;;;;19.14;51.78;98520.88;4918030;29;20036;-79
2023/05/24 03:28:03;;;;;;;3.95;2.60;;;;;;;19.34;51.10;98526.50;4933820;29;20036;-79
2023/05/24 03:30:28;;;;;;;4.90;3.10;;;;;;;19.16;51.66;98522.34;4917367;29;20040;-79
2023/05/24 03:32:54;;;;;;;5.00;2.85;;;;;;;18.97;52.05;98520.16;4933437;29;20046;-78
2023/05/24 03:35:19;;;;;;;3.78;2.72;;;;;;;19.01;51.95;98531.22;4918005;29;20036;-78
2023/05/24 03:37:45;;;;;;;7.10;2.80;;;;;;;19.44;50.96;98527.06;4917963;29;20051;-79
2023/05/24 03:40:11;;;;;;;6.00;2.92;;;;;;;19.42;50.89;98533.53;4917978;29;20036;-78
2023/05/24 03:42:36;;;;;;;6.38;2.85;;;;;;;19.35;51.36;98544.03;4933725;29;20513;-78
2023/05/24 03:45:02;;;;;;;3.22;2.80;;;;;;;19.37;51.33;98536.75;4934726;29;20122;-78
2023/05/24 03:47:28;;;;;;;5.97;3.08;;;;;;;19.59;50.85;98539.50;4949687;29;20036;-78
2023/05/24 03:49:53;;;;;;;6.93;2.65;;;;;;;20.05;49.59;98531.44;4949504;28;20043;-77
2023/05/24 03:52:19;;;;;;;5.55;2.70;;;;;;;19.91;50.04;98538.41;4933507;29;20051;-78
2023/05/24 03:54:44;;;;;;;4.50;2.90;;;;;;;19.90;50.00;98539.41;4933703;29;20444;-78
2023/05/24 03:57:10;;;;;;;4.70;2.53;;;;;;;19.85;50.17;98542.59;4917659;29;20531;-78
2023/05/24 03:59:35;;;;;;;5.82;2.80;;;;;;;19.93;50.14;98540.88;4917567;29;20043;-78
2023/05/24 04:02:01;;;;;;;5.30;2.67;;;;;;;20.22;49.53;98535.56;4934703;29;20039;-79
2023/05/24 04:04:26;;;;;;;9.25;2.80;;;;;;;21.45;46.81;98527.69;4949309;28;20099;-79
2023/05/24 04:06:52;;;;;;;5.15;2.75;;;;;;;22.57;44.59;98527.75;4950894;28;20106;-79
2023/05/24 04:09:18;;;;;;;3.50;2.47;;;;;;;23.54;42.86;98541.63;4953136;28;20547;-79
2023/05/24 04:11:43;;;;;;;3.33;2.33;;;;;;;24.35;41.00;98542.31;4937098;29;20476;-80
2023/05/24 04:14:09;;;;;;;4.30;2.55;;;;;;;25.18;39.22;98540.69;4953316;28;20031;-80
2023/05/24 04:16:35;;;;;;;4.10;2.40;;;;;;;25.88;38.16;98527.16;4921147;29;20040;-79
2023/05/24 04:19:02;;;;;;;6.03;2.40;;;;;;;25.59;38.58;98529.47;4936397;29;20043;-80
2023/05/24 04:21:28;;;;;;;3.88;2.05;;;;;;;26.58;37.00;98533.16;4905201;29;20066;-80
2023/05/24 04:23:54;;;;;;;7.25;2.35;;;;;;;27.32;35.55;98525.75;4905262;29;20036;-80
2023/05/24 04:26:20;;;;;;;7.53;2.30;;;;;;;28.01;34.64;98527.88;4921231;29;20039;-80
2023/05/24 04:28:47;;;;;;;2.88;2.13;;;;;;;28.71;33.48;98526.06;4937689;29;20044;-80
2023/05/24 04:31:14;;;;;;;5.82;2.10;;;;;;;29.27;32.45;98530.81;4921239;29;20279;-80
2023/05/24 04:33:40;;;;;;;6.05;2.20;;;;;;;30.02;31.07;98523.34;4937894;29;20036;-80
2023/05/24 04:36:07;;;;;;;5.35;2.10;;;;;;;30.58;29.87;98521.31;4936585;29;20114;-80
2023/05/24 04:38:33;;;;;;;5.95;2.15;;;;;;;31.31;28.84;98533.63;4937465;29;20047;-80
2023/05/24 04:40:58;;;;;;;5.53;2.60;;;;;;;31.82;27.72;98528.59;4936283;29;20191;-80
2023/05/24 04:43:27;;;;;;;8.70;2.60;;;;;;;32.37;26.85;98525.63;4936257;29;20127;-80
2023/05/24 04:45:56;;;;;;;5.47;2.63;;;;;;;32.96;25.39;98535.25;4920245;29;20130;-79
2023/05/24 04:48:23;;;;;;;10.07;2.65;;;;;;;33.62;25.06;98537.16;4936278;29;20062;-79
2023/05/24 04:50:52;;;;;;;5.93;2.20;;;;;;;34.03;24.34;98526.25;4935781;29;20043;-78
2023/05/24 04:53:18;;;;;;;6.53;2.20;;;;;;;34.58;23.84;98528.19;4919849;29;20039;-79
2023/05/24 04:55:44;;;;;;;9.25;2.20;;;;;;;35.15;22.62;98531.34;4951720;28;20503;-76
2023/05/24 04:58:09;;;;;;;8.90;1.98;;;;;;;35.64;22.42;98524.16;4919834;29;20043;-72
2023/05/24 05:00:35;;;;;;;4.97;1.80;;;;;;;36.17;23.98;98539.63;4919793;29;20040;-82
2023/05/24 05:03:00;;;;;;;13.38;2.10;;;;;;;36.85;24.06;98543.13;4919795;29;20206;-76
2023/05/24 05:05:26;;;;;;;12.50;1.98;;;;;;;37.52;21.97;98533.88;4938168;29;20040;-74
2023/05/24 05:07:51;;;;;;;12.52;2.15;;;;;;;38.08;20.27;98534.72;4935713;29;20557;-73
2023/05/24 05:10:17;;;;;;;8.70;1.90;;;;;;;38.66;19.26;98536.78;4935676;29;20411;-73
2023/05/24 05:12:43;;;;;;;5.15;2.03;;;;;;;39.19;18.55;98531.75;4935159;29;20515;-74
2023/05/24 05:15:09;;;;;;;7.80;2.20;;;;;;;39.83;17.55;98536.94;4920565;29;20389;-75
2023/05/24 05:17:34;;;;;;;4.70;1.70;;;;;;;40.29;17.26;98540.31;4922783;29;20063;-70
2023/05/24 05:20:00;;;;;;;7.97;1.80;;;;;;;40.66;16.80;98546.31;4938279;29;20055;-74
2023/05/24 05:22:25;;;;;;;5.10;1.90;;;;;;;41.00;16.57;98536.53;4920474;29;20076;-75
2023/05/24 05:24:51;;;;;;;4.43;1.80;;;;;;;40.94;16.71;98544.09;4904483;28;20050;-75
2023/05/24 05:27:16;;;;;;;8.65;2.30;;;;;;;39.65;17.64;98544.25;4938718;29;20039;-75
2023/05/24 05:29:42;;;;;;;12.77;2.25;;;;;;;39.54;21.13;98548.38;4939685;29;20039;-71
2023/05/24 05:32:08;;;;;;;15.65;2.00;;;;;;;39.55;21.03;98549.97;4942468;29;20048;-72
2023/05/24 05:34:33;;;;;;;7.70;2.10;;;;;;;38.70;21.67;98551.44;4903447;29;20047;-72
2023/05/24 05:36:59;;;;;;;10.73;2.30;;;;;;;37.15;23.39;98552.69;4903561;29;20042;-77
2023/05/24 05:39:24;;;;;;;12.35;2.25;;;;;;;37.27;22.97;98547.63;4919590;29;20067;-75
2023/05/24 05:41:50;;;;;;;13.07;2.17;;;;;;;36.36;24.27;98551.34;4936330;29;20460;-74
2023/05/24 05:44:15;;;;;;;7.03;2.30;;;;;;;35.99;24.66;98549.31;4936063;29;20039;-76
2023/05/24 05:46:42;;;;;;;9.77;2.40;;;;;;;35.58;24.18;98549.72;4919158;29;20038;-77
2023/05/24 05:49:08;;;;;;;7.28;2.17;;;;;;;35.69;23.52;98549.34;4903943;29;20044;-76
2023/05/24 05:51:35;;;;;;;7.03;2.45;;;;;;;35.95;23.12;98540.16;4903245;29;20044;-74
2023/05/24 05:54:00;;;;;;;8.82;2.30;;;;;;;36.71;22.13;98553.88;4918858;29;20047;-74
2023/05/24 05:56:26;;;;;;;6.70;2.20;;;;;;;37.25;21.60;98546.31;4918952;29;20035;-73
2023/05/24 05:58:52;;;;;;;9.32;1.95;;;;;;;38.17;20.42;98554.72;4919514;29;20054;-78
2023/05/24 06:01:18;;;;;;;4.38;1.92;;;;;;;38.62;20.29;98549.44;4919694;29;20070;-79
2023/05/24 06:03:44;;;;;;;5.70;1.88;;;;;;;39.29;19.57;98558.81;4921187;29;20183;-80
2023/05/24 06:06:10;;;;;;;5.97;2.33;;;;;;;39.77;18.93;98558.13;4901912;29;20471;-79
2023/05/24 06:08:39;;;;;;;6.20;2.10;;;;;;;39.99;18.07;98556.47;4903179;29;20487;-81
2023/05/24 06:11:05;;;;;;;6.68;2.20;;;;;;;39.83;18.27;98560.72;4919803;29;20070;-78
2023/05/24 06:13:31;;;;;;;7.38;2.20;;;;;;;40.15;17.56;98560.38;4903571;29;20063;-80
2023/05/24 06:15:57;;;;;;;10.07;1.67;;;;;;;39.87;17.77;98557.06;4903287;29;20499;-80
2023/05/24 06:18:24;;;;;;;8.25;2.30;;;;;;;39.79;17.88;98561.34;4918307;29;20058;-79
2023/05/24 06:20:50;;;;;;;4.82;1.90;;;;;;;40.01;17.71;98556.16;4902551;29;20051;-79
2023/05/24 06:23:15;;;;;;;6.53;1.80;;;;;;;40.33;17.47;98558.50;4902494;29;20423;-80
2023/05/24 06:25:42;;;;;;;10.98;1.80;;;;;;;40.59;17.08;98559.69;4903506;29;20063;-80
2023/05/24 06:28:08;;;;;;;10.40;1.88;;;;;;;40.73;16.80;98560.34;4919165;29;20052;-80
2023/05/24 06:30:34;;;;;;;4.25;1.77;;;;;;;40.91;16.81;98561.16;4918003;29;20047;-79
2023/05/24 06:33:00;;;;;;;11.48;2.30;;;;;;;41.04;16.85;98571.13;4902427;29;20415;-79
2023/05/24 06:35:25;;;;;;;5.95;1.73;;;;;;;41.21;16.38;98569.50;4918518;29;20039;-79
2023/05/24 06:37:51;;;;;;;5.53;1.85;;;;;;;40.43;16.88;98568.34;4935546;29;20118;-79
2023/05/24 06:40:17;;;;;;;6.95;2.08;;;;;;;40.33;17.01;98565.91;4902697;29;20196;-79
2023/05/24 06:42:42;;;;;;;8.85;2.00;;;;;;;39.70;17.74;98567.91;4918526;29;20047;-78
2023/05/24 06:45:08;;;;;;;4.47;2.00;;;;;;;39.82;17.80;98564.56;4918555;29;20043;-79
2023/05/24 06:47:34;;;;;;;7.95;1.90;;;;;;;40.02;17.00;98566.75;4902408;29;20078;-79
2023/05/24 06:50:00;;;;;;;10.13;2.10;;;;;;;40.07;16.69;98560.34;4918526;29;20043;-79
2023/05/24 06:52:26;;;;;;;8.18;2.28;;;;;;;40.14;16.95;98558.75;4902769;29;20561;-79
2023/05/24 06:54:51;;;;;;;9.43;2.80;;;;;;;40.11;17.12;98564.06;4918067;29;20106;-79
2023/05/24 06:57:17;;;;;;;5.60;2.47;;;;;;;40.11;17.39;98556.66;4918589;29;20115;-79
2023/05/24 06:59:42;;;;;;;9.27;2.80;;;;;;;40.09;17.49;98541.69;4917927;29;20039;-79
2023/05/24 07:02:09;;;;;;;5.22;2.60;;;;;;;40.01;17.18;98550.69;4918154;29;20067;-80
2023/05/24 07:04:34;;;;;;;7.23;2.70;;;;;;;40.05;17.46;98546.19;4917990;29;20044;-79
2023/05/24 07:07:00;;;;;;;10.70;3.00;;;;;;;40.07;17.87;98549.41;4902237;29;20044;-79
2023/05/24 07:09:25;;;;;;;8.75;2.83;;;;;;;40.08;17.30;98559.25;4918055;29;20060;-80
2023/05/24 07:11:51;;;;;;;8.63;2.65;;;;;;;39.85;17.29;98545.59;4918358;29;20044;-79
2023/05/24 07:14:17;;;;;;;8.27;2.67;;;;;;;39.93;17.79;98554.97;4902386;29;20043;-79
2023/05/24 07:16:42;;;;;;;9.48;2.75;;;;;;;39.69;17.52;98550.69;4918000;29;20056;-79
2023/05/24 07:19:08;;;;;;;9.98;3.10;;;;;;;39.75;17.70;98548.63;4917525;29;20043;-79
2023/05/24 07:21:34;;;;;;;9.00;3.42;;;;;;;39.60;17.57;98545.19;4935395;29;20054;-79
2023/05/24 07:23:59;;;;;;;10.50;4.18;;;;;;;39.59;17.99;98550.97;4902221;29;20043;-79
2023/05/24 07:26:25;;;;;;;10.45;3.33;;;;;;;39.46;17.89;98555.38;4902438;29;20046;-79
2023/05/24 07:28:50;;;;;;;12.27;4.07;;;;;;;39.20;18.11;98547.81;4902392;29;20032;-78
2023/05/24 07:31:16;;;;;;;13.63;4.30;;;;;;;39.15;18.11;98552.63;4918112;29;20043;-80
2023/05/24 07:33:42;;;;;;;8.98;3.60;;;;;;;39.08;18.02;98547.59;4918030;29;20135;-79
2023/05/24 07:36:07;;;;;;;10.43;3.35;;;;;;;39.02;17.79;98557.78;4917650;29;20050;-78
2023/05/24 07:38:33;;;;;;;10.38;3.47;;;;;;;38.85;17.94;98554.94;4917863;29;20039;-79
2023/05/24 07:40:59;;;;;;;8.38;3.50;;;;;;;38.74;18.02;98557.09;4919889;29;20081;-78
2023/05/24 07:43:26;;;;;;;9.02;3.35;;;;;;;38.45;18.29;98552.00;4906342;29;20122;-78
2023/05/24 07:45:51;;;;;;;11.80;3.60;;;;;;;38.51;18.15;98554.28;4922241;29;20040;-78
2023/05/24 07:48:18;;;;;;;12.70;3.70;;;;;;;38.51;18.51;98557.03;4921620;29;20434;-79
2023/05/24 07:50:47;;;;;;;7.90;3.08;;;;;;;38.34;18.34;98563.09;4905935;29;20127;-81
2023/05/24 07:53:13;;;;;;;9.45;2.78;;;;;;;38.13;18.61;98548.25;4922116;29;20067;-79
2023/05/24 07:55:39;;;;;;;6.82;2.67;;;;;;;38.16;19.01;98567.56;4921444;29;20046;-80
2023/05/24 07:58:05;;;;;;;7.00;2.72;;;;;;;38.12;18.46;98552.88;4921631;29;20035;-79
2023/05/24 08:00:32;;;;;;;9.20;2.60;;;;;;;38.04;18.86;98555.53;4905426;29;20071;-78
2023/05/24 08:02:58;;;;;;;5.88;2.47;;;;;;;37.90;19.06;98564.50;4905544;29;20048;-78
2023/05/24 08:05:24;;;;;;;9.10;2.50;;;;;;;37.81;18.83;98566.28;4921592;29;20035;-79
2023/05/24 08:07:50;;;;;;;6.57;2.25;;;;;;;37.65;19.32;98557.56;4905716;29;20042;-79
2023/05/24 08:10:15;;;;;;;4.40;2.13;;;;;;;37.56;19.65;98562.94;4905694;29;20051;-79
2023/05/24 08:12:41;;;;;;;6.03;2.10;;;;;;;37.41;19.77;98552.28;4938194;29;20118;-78
2023/05/24 08:15:07;;;;;;;5.35;2.10;;;;;;;37.26;19.71;98562.34;4921449;29;20471;-79
2023/05/24 08:17:33;;;;;;;10.77;2.17;;;;;;;37.10;20.11;98559.03;4921496;29;20040;-78
2023/05/24 08:19:58;;;;;;;5.28;2.00;;;;;;;36.80;20.22;98556.75;4921129;29;20055;-79
2023/05/24 08:22:24;;;;;;;7.90;2.30;;;;;;;36.72;20.20;98560.91;4921547;29;20063;-78
2023/05/24 08:24:51;;;;;;;5.68;2.22;;;;;;;36.47;20.60;98556.63;4938455;29;20040;-79
2023/05/24 08:27:16;;;;;;;6.97;2.17;;;;;;;36.39;20.73;98548.06;4904768;29;20075;-78
2023/05/24 08:29:42;;;;;;;6.32;1.92;;;;;;;36.44;20.89;98549.91;4921275;29;20067;-78
2023/05/24 08:32:08;;;;;;;7.40;2.03;;;;;;;36.48;21.28;98547.41;4921259;29;20036;-79
2023/05/24 08:34:37;;;;;;;4.57;1.98;;;;;;;36.38;21.19;98549.16;4905310;29;20048;-79
2023/05/24 08:37:03;;;;;;;5.45;1.88;;;;;;;36.32;21.12;98544.06;4921189;29;20094;-78
2023/05/24 08:39:29;;;;;;;9.52;2.42;;;;;;;36.29;21.27;98553.59;4905445;29;20043;-79
2023/05/24 08:41:54;;;;;;;6.65;2.22;;;;;;;36.04;21.52;98550.09;4920586;29;20035;-78
2023/05/24 08:44:21;;;;;;;4.85;1.95;;;;;;;36.13;21.51;98568.47;4904751;29;20111;-79
2023/05/24 08:46:47;;;;;;;5.63;2.13;;;;;;;36.00;21.50;98556.38;4921328;29;20046;-78
2023/05/24 08:49:13;;;;;;;5.25;2.15;;;;;;;35.55;22.11;98570.13;4920660;29;20040;-79
2023/05/24 08:51:39;;;;;;;5.07;2.15;;;;;;;35.27;22.45;98563.59;4920504;29;20130;-78
2023/05/24 08:54:04;;;;;;;5.00;2.33;;;;;;;35.10;22.45;98564.75;4920801;29;20079;-78
2023/05/24 08:56:30;;;;;;;6.88;2.00;;;;;;;35.10;22.38;98564.75;4905727;29;20051;-77
2023/05/24 08:58:55;;;;;;;4.80;1.90;;;;;;;35.10;22.45;98564.75;4904587;29;20558;-79
2023/05/24 09:01:22;;;;;;;4.82;1.90;;;;;;;34.86;22.87;98559.22;4920812;29;20045;-78
2023/05/24 09:03:47;;;;;;;5.13;1.90;;;;;;;34.80;23.08;98560.34;4904857;29;20187;-78
2023/05/24 09:06:16;;;;;;;4.90;2.22;;;;;;;34.82;23.04;98562.78;4920603;29;20135;-78
2023/05/24 09:08:42;;;;;;;4.40;2.00;;;;;;;34.70;23.63;98561.19;4905532;29;20406;-77
2023/05/24 09:11:07;;;;;;;15.35;2.30;;;;;;;34.59;23.78;98552.31;4920337;29;20040;-80
2023/05/24 09:13:33;;;;;;;6.68;1.73;;;;;;;34.21;23.58;98554.63;4920384;29;20041;-79
2023/05/24 09:15:59;;;;;;;7.78;2.08;;;;;;;34.18;24.09;98566.00;4920317;29;20072;-80
2023/05/24 09:18:25;;;;;;;2.65;1.90;;;;;;;34.15;24.07;98550.31;4921268;29;20067;-79
2023/05/24 09:20:50;;;;;;;4.93;1.88;;;;;;;34.14;24.30;98553.28;4919986;29;20051;-79
2023/05/24 09:23:16;;;;;;;3.72;2.00;;;;;;;34.03;24.41;98558.75;4920613;29;20032;-80
2023/05/24 09:25:45;;;;;;;3.72;1.85;;;;;;;33.99;24.35;98554.97;4905148;29;20095;-79
2023/05/24 09:28:16;;;;;;;5.68;2.20;;;;;;;33.93;24.65;98550.66;4936244;29;20046;-79
2023/05/24 09:30:45;;;;;;;5.20;2.10;;;;;;;33.83;24.74;98542.56;4921141;29;20043;-78
2023/05/24 09:33:12;;;;;;;6.75;2.28;;;;;;;33.79;25.21;98547.69;4919605;29;20395;-79
2023/05/24 09:35:41;;;;;;;5.60;1.92;;;;;;;33.71;24.54;98550.97;4920275;29;20036;-78
2023/05/24 09:38:14;;;;;;;4.90;1.77;;;;;;;33.64;24.61;98548.53;4919595;29;20559;-79
2023/05/24 09:40:39;;;;;;;2.80;2.00;;;;;;;33.61;24.73;98543.66;4920117;29;20353;-79
2023/05/24 09:43:07;;;;;;;2.88;1.73;;;;;;;33.54;25.00;98545.81;4920189;29;20046;-79
2023/05/24 09:45:37;;;;;;;4.75;1.90;;;;;;;33.49;25.04;98538.50;4920255;29;20040;-79
2023/05/24 09:48:08;;;;;;;4.82;2.42;;;;;;;33.48;25.15;98541.53;4904863;29;20047;-79
2023/05/24 09:50:34;;;;;;;4.25;2.10;;;;;;;33.43;25.33;98541.50;4920054;29;20040;-80
2023/05/24 09:53:01;;;;;;;5.90;2.45;;;;;;;33.11;26.04;98546.06;4919621;29;20492;-79
2023/05/24 09:55:27;;;;;;;4.95;2.08;;;;;;;32.95;26.19;98537.13;4919350;29;20483;-79
2023/05/24 09:58:02;;;;;;;4.35;2.38;;;;;;;32.88;26.63;98539.31;4919090;29;20046;-80
2023/05/24 10:00:27;;;;;;;4.85;2.03;;;;;;;32.81;26.83;98547.69;4903892;29;20046;-79
2023/05/24 10:03:01;;;;;;;4.05;1.90;;;;;;;32.75;27.09;98540.63;4919255;29;20039;-81
2023/05/24 10:05:27;;;;;;;8.30;2.08;;;;;;;32.52;27.15;98533.78;4902463;29;20131;-80
2023/05/24 10:07:53;;;;;;;6.47;2.30;;;;;;;32.00;28.07;98531.94;4903473;29;20130;-78
2023/05/24 10:10:18;;;;;;;5.32;2.20;;;;;;;31.98;28.43;98543.00;4919179;29;20063;-78
2023/05/24 10:12:45;;;;;;;4.90;2.25;;;;;;;31.67;28.77;98552.78;4903271;29;20075;-80
2023/05/24 10:15:11;;;;;;;5.25;1.92;;;;;;;31.17;29.68;98550.22;4919587;29;20135;-79
2023/05/24 10:17:36;;;;;;;4.68;2.15;;;;;;;31.11;30.14;98553.94;4919261;29;20035;-79
2023/05/24 10:20:05;;;;;;;8.60;2.03;;;;;;;30.95;30.02;98538.69;4902674;29;20052;-79
2023/05/24 10:22:31;;;;;;;6.35;2.35;;;;;;;30.85;30.43;98556.38;4903014;29;20040;-79
2023/05/24 10:25:03;;;;;;;5.68;2.20;;;;;;;30.74;30.28;98551.97;5104107;27;1445457;-78
2023/05/24 10:27:30;;;;;;;5.72;2.40;;;;;;;30.60;30.60;98546.16;5112781;28;20549;-80
2023/05/24 10:30:12;;;;;;;3.78;2.30;;;;;;;30.51;31.01;98539.56;5095717;28;20035;-78
2023/05/24 10:32:37;;;;;;;6.10;2.30;;;;;;;30.44;30.98;98542.47;5129742;28;20039;-78
2023/05/24 10:35:04;;;;;;;6.63;2.60;;;;;;;30.47;30.87;98530.34;5112140;28;20372;-78
2023/05/24 10:37:30;;;;;;;7.15;2.63;;;;;;;30.46;31.02;98536.84;5095030;28;20047;-79
2023/05/24 10:39:57;;;;;;;9.15;2.60;;;;;;;30.55;31.08;98521.03;5111993;28;20039;-79
2023/05/24 10:42:23;;;;;;;5.93;2.63;;;;;;;30.57;30.83;98519.72;5095315;28;20108;-79
2023/05/24 10:44:48;;;;;;;7.60;2.42;;;;;;;30.57;30.79;98527.78;5111313;28;20056;-80
2023/05/24 10:47:15;;;;;;;7.63;2.63;;;;;;;30.62;30.49;98518.97;5111821;28;20034;-77
2023/05/24 10:49:51;;;;;;;10.60;2.72;;;;;;;30.57;30.56;98513.50;5095125;28;20521;-78
2023/05/24 10:52:17;;;;;;;6.05;2.45;;;;;;;30.58;30.61;98504.34;5085501;28;20035;-78
2023/05/24 10:55:08;;;;;;;8.15;2.60;;;;;;;30.64;30.56;98506.03;5091607;28;20020;-78
2023/05/24 10:57:34;;;;;;;4.20;3.15;;;;;;;30.64;30.15;98504.16;5092468;28;20092;-79
2023/05/24 11:00:24;;;;;;;7.28;2.88;;;;;;;30.41;30.11;98512.50;5090609;28;20040;-79
2023/05/24 11:02:50;;;;;;;5.30;3.00;;;;;;;30.59;29.95;98511.38;5109267;28;20080;-78
2023/05/24 11:05:16;;;;;;;12.25;3.40;;;;;;;30.38;29.88;98508.47;5091047;28;20127;-79
2023/05/24 11:07:42;;;;;;;6.50;2.58;;;;;;;30.53;30.03;98513.19;5090731;28;20126;-79
2023/05/24 11:10:15;;;;;;;8.35;3.30;;;;;;;30.68;29.28;98507.16;5074051;28;20123;-79
2023/05/24 11:12:41;;;;;;;4.95;2.67;;;;;;;30.72;29.25;98510.16;5074165;28;20028;-78
2023/05/24 11:15:10;;;;;;;4.20;2.60;;;;;;;30.56;29.32;98506.50;5107916;28;20051;-78
2023/05/24 11:18:08;;;;;;;5.25;2.80;;;;;;;30.76;29.20;98501.31;5090882;28;20114;-78
2023/05/24 11:20:34;;;;;;;6.05;2.63;;;;;;;30.95;29.60;98490.97;5100250;28;20506;-79
2023/05/24 11:23:02;;;;;;;8.73;2.58;;;;;;;30.97;28.83;98485.38;5090473;28;20119;-79
2023/05/24 11:25:28;;;;;;;5.72;2.67;;;;;;;31.01;28.97;98489.16;5090682;28;20067;-80
2023/05/24 11:27:56;;;;;;;4.50;2.58;;;;;;;31.06;28.38;98483.00;5074017;28;20039;-78
2023/05/24 11:30:22;;;;;;;6.82;2.50;;;;;;;30.98;28.95;98482.41;5090698;28;20384;-79